ADDS METAR Data INFO
IDs: Format: Raw Decoded Include TAF

Data at: 2039 UTC 20 Jul 2018

KORD 202029Z 28011G16KT 10SM SCT017 OVC030 23/19 A2963 RMK AO2 RAE29 P0001 T02280194
KORD 202003Z 26012KT 10SM -RA FEW013 BKN018 OVC041 22/20 A2963 RMK AO2 P0001 T02220200
KORD 201951Z 25011G18KT 5SM RA BKN013 OVC033 22/19 A2963 RMK AO2 RAE22B44 SLP028 P0004 T02220194
KORD 201851Z 23006G15KT 6SM RA BR FEW012 BKN018 OVC027 22/19 A2963 RMK AO2 RAB05 SLP028 P0002 T02170194
KORD 201837Z 23009KT 7SM -RA FEW010 BKN022 OVC050 22/19 A2963 RMK AO2 RAB05 P0000 T02170194
KORD 201822Z 23012G18KT 4SM -RA BR FEW011 BKN045 OVC060 22/19 A2964 RMK AO2 RAB05 P0000 T02170194
KORD 201751Z 24016G21KT 10SM FEW023 BKN039 OVC065 24/18 A2964 RMK AO2 RAB09E40 SLP031 P0000 60002 T02440178 10256 20211 58007
KORD 201651Z 21007KT 10SM FEW019 BKN055 BKN130 BKN250 24/18 A2965 RMK AO2 SLP034 T02440183
KORD 201551Z 21009KT 10SM FEW036 SCT046 OVC065 22/19 A2966 RMK AO2 RAB21E47 SLP038 P0002 T02170189
KORD 201546Z 22006KT 8SM -RA FEW036 BKN046 OVC065 22/19 A2966 RMK AO2 RAB21 P0002
KORD 201536Z 22009G17KT 4SM -RA FEW038 BKN046 OVC065 22/19 A2966 RMK AO2 RAB21 P0001 T02170189
KORD 201451Z 23010G20KT 10SM FEW027 BKN049TCU OVC065 25/17 A2965 RMK AO2 SLP035 TCU NW T02500172 58007
KORD 201414Z 21010KT 10SM SCT022 BKN031 26/18 A2966 RMK AO2 T02560183
KORD 201351Z 22010KT 10SM BKN020 24/18 A2967 RMK AO2 SLP041 T02390183
KORD 201251Z 20012G18KT 10SM BKN019 23/18 A2967 RMK AO2 SLP043 T02330183
KORD 201243Z 21008KT 10SM BKN019 23/18 A2967 RMK AO2 T02330178
KORD 201151Z 21014G20KT 10SM FEW045 FEW250 23/17 A2967 RMK AO2 SLP042 70003 T02280172 10256 20228 56008
KORD 201051Z 20009KT 10SM FEW042 FEW070 SCT150 SCT250 23/17 A2968 RMK AO2 SLP045 CB DSNT N T02330167
KORD 200951Z 19012KT 10SM FEW070 SCT100 BKN250 24/17 A2968 RMK AO2 LTG DSNT W AND NW SLP044 FRQ LTGIC DSNT W-NW CB DSNT W-NW T02390172
KORD 200851Z 18013G19KT 10SM FEW070 SCT100 SCT250 24/18 A2970 RMK AO2 SLP051 T02390178 56013
KORD 200751Z 19009G19KT 10SM SCT060 SCT150 BKN250 24/17 A2971 RMK AO2 SLP055 T02440172
KORD 200651Z 18014G21KT 10SM SCT033 BKN060 BKN150 BKN250 26/17 A2972 RMK AO2 LTG DSNT N SLP057 T02560172
KORD 200551Z 16016G22KT 10SM SCT040 BKN060 BKN150 OVC250 26/17 A2974 RMK AO2 RAE01 SLP064 OCNL LTGIC DSNT N CB DSNT N P0002 60003 T02560172 10278 20250 403060194 58019
KORD 200451Z 17012G21KT 9SM -RA SCT044CB BKN080 OVC150 26/18 A2977 RMK AO2 RAB48 SLP076 CB OHD MOV NE P0000 T02560178
KORD 200351Z 15013G18KT 10SM FEW048 BKN060 BKN140 BKN200 26/17 A2977 RMK AO2 LTG DSNT SW SLP076 FRQ LTGICCC DSNT SW-NW CB DSNT SW-NW T02610172
KORD 200251Z 16013G17KT 10SM SCT065 BKN095 BKN140 BKN200 26/17 A2980 RMK AO2 SLP085 60001 T02610167 56013
KORD 200151Z 17008KT 10SM SCT060 SCT095 BKN150 BKN250 26/17 A2980 RMK AO2 SLP087 T02610167
KORD 200051Z 15009KT 10SM FEW055 FEW075 BKN100 BKN150 BKN250 26/16 A2981 RMK AO2 RAB23E37 SLP091 P0001 T02610161
KORD 192351Z 18012G17KT 10SM FEW060 SCT100 BKN120 BKN160 OVC200 28/15 A2984 RMK AO2 LTG DSNT SW SLP097 T02780150 10306 20261 56020
KORD 192251Z 21005G16KT 10SM FEW060 SCT110 BKN160 OVC250 27/16 A2985 RMK AO2 SLP103 T02670161
KORD 192151Z 17009KT 10SM FEW055 SCT110 SCT130 BKN160 OVC250 29/14 A2985 RMK AO2 SLP104 T02890144
KORD 192051Z 18010KT 10SM FEW060 BKN100 OVC160 29/13 A2990 RMK AO2 SLP118 T02940133 56012
KORD 191951Z 17012G21KT 9SM FEW060 SCT150 BKN250 31/12 A2991 RMK AO2 SLP123 T03060122
KORD 191851Z 16012KT 10SM FEW060 SCT130 BKN250 30/13 A2991 RMK AO2 SLP123 T03000128
KORD 191751Z 16012KT 10SM FEW055 SCT130 BKN250 29/14 A2993 RMK AO2 SLP130 T02940139 10294 20217 56017
KORD 191651Z 17012G20KT 10SM SCT055 SCT130 BKN250 28/13 A2995 RMK AO2 SLP136 T02780133
KORD 191551Z 16012KT 10SM FEW065 SCT150 BKN250 28/13 A2995 RMK AO2 SLP138 T02830128
KORD 191451Z 14008KT 10SM FEW065 FEW150 BKN250 27/14 A2998 RMK AO2 SLP148 T02670139 58012
KORD 191351Z 12008KT 10SM SCT055 SCT130 BKN250 24/14 A3000 RMK AO2 SLP155 T02440144
KORD 191251Z 10008KT 10SM FEW130 BKN250 23/14 A3000 RMK AO2 SLP156 T02280144
KORD 191151Z 09004KT 10SM FEW130 BKN250 22/14 A3002 RMK AO2 SLP160 VIRGA S-SW T02170144 10217 20194 55002
KORD 191051Z 07004KT 10SM FEW130 SCT250 20/13 A3001 RMK AO2 SLP159 T02000133
KORD 190951Z 08004KT 10SM FEW250 20/14 A3001 RMK AO2 SLP159 T02000144
KORD 190851Z 09003KT 10SM SCT250 20/13 A3003 RMK AO2 SLP163 T02000133 56007